sensor_id;sensor_type;location;lat;lon;timestamp;pressure;altitude;pressure_sealevel;temperature;humidity
58223;BME280;44020;50.890;15.796;2023-05-01T00:06:38;98110.13;;;4.97;62.64
58223;BME280;44020;50.890;15.796;2023-05-01T00:09:08;98107.73;;;4.91;62.79
58223;BME280;44020;50.890;15.796;2023-05-01T00:24:44;98097.09;;;4.58;63.07
58223;BME280;44020;50.890;15.796;2023-05-01T00:28:18;98095.39;;;4.53;63.05
58223;BME280;44020;50.890;15.796;2023-05-01T00:31:37;98090.63;;;4.48;63.26
58223;BME280;44020;50.890;15.796;2023-05-01T00:37:35;98085.75;;;4.43;63.49
58223;BME280;44020;50.890;15.796;2023-05-01T00:40:21;98081.35;;;4.38;63.25
58223;BME280;44020;50.890;15.796;2023-05-01T00:43:37;98077.52;;;4.33;63.74
58223;BME280;44020;50.890;15.796;2023-05-01T00:46:18;98079.43;;;4.29;64.10
58223;BME280;44020;50.890;15.796;2023-05-01T00:56:05;98081.55;;;4.15;64.21
58223;BME280;44020;50.890;15.796;2023-05-01T00:58:36;98080.74;;;4.13;64.33
58223;BME280;44020;50.890;15.796;2023-05-01T01:14:24;98072.05;;;3.87;64.68
58223;BME280;44020;50.890;15.796;2023-05-01T01:27:39;98072.06;;;3.77;65.00
58223;BME280;44020;50.890;15.796;2023-05-01T01:38:15;98062.59;;;3.67;65.15
58223;BME280;44020;50.890;15.796;2023-05-01T01:45:00;98059.61;;;3.58;65.32
58223;BME280;44020;50.890;15.796;2023-05-01T01:48:03;98055.59;;;3.52;65.36
58223;BME280;44020;50.890;15.796;2023-05-01T01:55:19;98057.42;;;3.45;65.53
58223;BME280;44020;50.890;15.796;2023-05-01T01:58:02;98056.70;;;3.36;65.65
58223;BME280;44020;50.890;15.796;2023-05-01T02:10:58;98053.01;;;3.31;66.52
58223;BME280;44020;50.890;15.796;2023-05-01T02:13:54;98048.80;;;3.30;66.10
58223;BME280;44020;50.890;15.796;2023-05-01T02:23:08;98039.17;;;3.20;66.46
58223;BME280;44020;50.890;15.796;2023-05-01T02:26:37;98035.95;;;3.17;66.71
58223;BME280;44020;50.890;15.796;2023-05-01T02:29:01;98031.89;;;3.12;66.79
58223;BME280;44020;50.890;15.796;2023-05-01T02:38:40;98020.98;;;3.13;66.85
58223;BME280;44020;50.890;15.796;2023-05-01T02:41:14;98020.72;;;3.10;67.06
58223;BME280;44020;50.890;15.796;2023-05-01T02:44:24;98017.13;;;3.08;67.00
58223;BME280;44020;50.890;15.796;2023-05-01T02:56:36;98012.77;;;2.97;67.18
58223;BME280;44020;50.890;15.796;2023-05-01T02:59:24;98013.32;;;2.91;67.09
58223;BME280;44020;50.890;15.796;2023-05-01T03:05:43;98007.61;;;2.84;67.12
58223;BME280;44020;50.890;15.796;2023-05-01T03:11:22;98008.92;;;2.76;67.58
58223;BME280;44020;50.890;15.796;2023-05-01T03:17:04;98001.98;;;2.74;67.48
58223;BME280;44020;50.890;15.796;2023-05-01T03:26:32;97988.94;;;2.60;67.37
58223;BME280;44020;50.890;15.796;2023-05-01T03:29:09;97988.52;;;2.57;67.85
58223;BME280;44020;50.890;15.796;2023-05-01T03:31:45;97988.23;;;2.55;67.53
58223;BME280;44020;50.890;15.796;2023-05-01T03:34:14;97984.98;;;2.53;67.60
58223;BME280;44020;50.890;15.796;2023-05-01T03:37:03;97988.40;;;2.50;67.76
58223;BME280;44020;50.890;15.796;2023-05-01T03:42:52;97986.43;;;2.51;68.11
58223;BME280;44020;50.890;15.796;2023-05-01T03:45:57;97990.33;;;2.50;68.06
58223;BME280;44020;50.890;15.796;2023-05-01T03:48:32;97988.21;;;2.50;68.08
58223;BME280;44020;50.890;15.796;2023-05-01T03:51:18;97983.48;;;2.50;68.11
58223;BME280;44020;50.890;15.796;2023-05-01T03:57:30;97980.54;;;2.49;68.20
58223;BME280;44020;50.890;15.796;2023-05-01T04:00:53;97978.13;;;2.47;68.74
58223;BME280;44020;50.890;15.796;2023-05-01T04:03:51;97975.32;;;2.48;69.25
58223;BME280;44020;50.890;15.796;2023-05-01T04:06:20;97975.14;;;2.48;69.16
58223;BME280;44020;50.890;15.796;2023-05-01T04:15:16;97974.89;;;2.40;70.06
58223;BME280;44020;50.890;15.796;2023-05-01T04:24:13;97967.38;;;2.39;70.20
58223;BME280;44020;50.890;15.796;2023-05-01T04:26:42;97966.98;;;2.40;70.43
58223;BME280;44020;50.890;15.796;2023-05-01T04:35:38;97962.59;;;2.51;70.63
58223;BME280;44020;50.890;15.796;2023-05-01T04:38:16;97961.05;;;2.55;70.83
58223;BME280;44020;50.890;15.796;2023-05-01T04:40:49;97958.77;;;2.60;70.87
58223;BME280;44020;50.890;15.796;2023-05-01T04:43:38;97957.21;;;2.64;71.00
58223;BME280;44020;50.890;15.796;2023-05-01T04:46:36;97955.58;;;2.71;71.31
58223;BME280;44020;50.890;15.796;2023-05-01T04:49:28;97951.84;;;2.78;71.32
58223;BME280;44020;50.890;15.796;2023-05-01T04:52:24;97948.46;;;2.84;71.29
58223;BME280;44020;50.890;15.796;2023-05-01T04:57:45;97944.20;;;3.00;71.63
58223;BME280;44020;50.890;15.796;2023-05-01T05:00:29;97945.98;;;3.09;71.55
58223;BME280;44020;50.890;15.796;2023-05-01T05:03:13;97939.84;;;3.15;71.77
58223;BME280;44020;50.890;15.796;2023-05-01T05:05:52;97933.16;;;3.19;71.86
58223;BME280;44020;50.890;15.796;2023-05-01T05:09:01;97932.64;;;3.23;71.94
58223;BME280;44020;50.890;15.796;2023-05-01T05:11:30;97931.19;;;3.29;72.02
58223;BME280;44020;50.890;15.796;2023-05-01T05:17:15;97922.41;;;3.39;72.03
58223;BME280;44020;50.890;15.796;2023-05-01T05:19:46;97924.70;;;3.43;72.33
58223;BME280;44020;50.890;15.796;2023-05-01T05:22:35;97920.13;;;3.48;72.61
58223;BME280;44020;50.890;15.796;2023-05-01T05:25:06;97919.92;;;3.54;72.72
58223;BME280;44020;50.890;15.796;2023-05-01T05:27:34;97922.08;;;3.57;72.99
58223;BME280;44020;50.890;15.796;2023-05-01T05:30:04;97923.80;;;3.62;73.19
58223;BME280;44020;50.890;15.796;2023-05-01T05:32:32;97921.27;;;3.69;73.53
58223;BME280;44020;50.890;15.796;2023-05-01T05:35:10;97920.46;;;3.75;73.44
58223;BME280;44020;50.890;15.796;2023-05-01T05:40:54;97914.29;;;3.94;74.06
58223;BME280;44020;50.890;15.796;2023-05-01T05:47:28;97906.89;;;4.16;74.55
58223;BME280;44020;50.890;15.796;2023-05-01T05:53:18;97898.71;;;4.39;74.70
58223;BME280;44020;50.890;15.796;2023-05-01T05:56:09;97892.02;;;4.52;74.89
58223;BME280;44020;50.890;15.796;2023-05-01T05:58:52;97890.70;;;4.62;74.78
58223;BME280;44020;50.890;15.796;2023-05-01T06:05:11;97880.84;;;4.86;74.81
58223;BME280;44020;50.890;15.796;2023-05-01T06:08:12;97881.72;;;4.98;74.66
58223;BME280;44020;50.890;15.796;2023-05-01T06:10:57;97875.98;;;5.12;74.93
58223;BME280;44020;50.890;15.796;2023-05-01T06:17:22;97876.39;;;5.41;75.17
58223;BME280;44020;50.890;15.796;2023-05-01T06:20:09;97876.56;;;5.57;75.79
58223;BME280;44020;50.890;15.796;2023-05-01T06:23:02;97878.01;;;5.71;75.25
58223;BME280;44020;50.890;15.796;2023-05-01T06:25:43;97879.48;;;5.84;75.44
58223;BME280;44020;50.890;15.796;2023-05-01T06:28:13;97876.91;;;5.97;75.17
58223;BME280;44020;50.890;15.796;2023-05-01T06:30:50;97871.23;;;6.12;74.86
58223;BME280;44020;50.890;15.796;2023-05-01T06:33:28;97868.27;;;6.30;74.28
58223;BME280;44020;50.890;15.796;2023-05-01T06:36:24;97866.75;;;6.45;73.20
58223;BME280;44020;50.890;15.796;2023-05-01T06:42:30;97856.15;;;6.90;71.45
58223;BME280;44020;50.890;15.796;2023-05-01T06:45:09;97852.92;;;7.11;70.58
58223;BME280;44020;50.890;15.796;2023-05-01T06:48:28;97851.61;;;7.31;69.51
58223;BME280;44020;50.890;15.796;2023-05-01T06:50:57;97845.91;;;7.48;69.67
58223;BME280;44020;50.890;15.796;2023-05-01T06:53:57;97841.27;;;7.71;68.81
58223;BME280;44020;50.890;15.796;2023-05-01T07:00:00;97840.58;;;8.11;64.30
58223;BME280;44020;50.890;15.796;2023-05-01T07:03:08;97832.83;;;8.29;63.77
58223;BME280;44020;50.890;15.796;2023-05-01T07:11:46;97824.98;;;8.81;60.51
58223;BME280;44020;50.890;15.796;2023-05-01T07:14:45;97821.35;;;8.93;60.36
58223;BME280;44020;50.890;15.796;2023-05-01T07:17:28;97823.54;;;9.07;60.19
58223;BME280;44020;50.890;15.796;2023-05-01T07:19:59;97825.92;;;9.17;59.40
58223;BME280;44020;50.890;15.796;2023-05-01T07:22:33;97819.73;;;9.28;59.15
58223;BME280;44020;50.890;15.796;2023-05-01T07:31:23;97818.48;;;9.72;57.24
58223;BME280;44020;50.890;15.796;2023-05-01T07:33:50;97816.41;;;9.85;55.28
58223;BME280;44020;50.890;15.796;2023-05-01T07:36:18;97816.69;;;9.92;54.18
58223;BME280;44020;50.890;15.796;2023-05-01T07:38:48;97810.08;;;10.00;55.43
58223;BME280;44020;50.890;15.796;2023-05-01T07:41:15;97810.62;;;10.08;55.25
58223;BME280;44020;50.890;15.796;2023-05-01T07:43:44;97806.23;;;10.21;54.42
58223;BME280;44020;50.890;15.796;2023-05-01T07:46:11;97801.05;;;10.35;54.20
58223;BME280;44020;50.890;15.796;2023-05-01T07:48:50;97806.69;;;10.46;53.00
58223;BME280;44020;50.890;15.796;2023-05-01T07:54:22;97795.66;;;10.65;52.55
58223;BME280;44020;50.890;15.796;2023-05-01T07:56:51;97792.21;;;10.71;51.99
58223;BME280;44020;50.890;15.796;2023-05-01T07:59:22;97790.77;;;10.76;50.94
58223;BME280;44020;50.890;15.796;2023-05-01T08:02:00;97789.55;;;10.81;50.55
58223;BME280;44020;50.890;15.796;2023-05-01T08:04:28;97788.38;;;10.87;50.72
58223;BME280;44020;50.890;15.796;2023-05-01T08:07:15;97790.73;;;10.99;50.91
58223;BME280;44020;50.890;15.796;2023-05-01T08:09:56;97786.17;;;11.11;50.13
58223;BME280;44020;50.890;15.796;2023-05-01T08:12:27;97786.04;;;11.21;50.48
58223;BME280;44020;50.890;15.796;2023-05-01T08:14:59;97788.52;;;11.30;50.88
58223;BME280;44020;50.890;15.796;2023-05-01T08:17:27;97789.24;;;11.43;50.28
58223;BME280;44020;50.890;15.796;2023-05-01T08:20:09;97790.01;;;11.57;49.89
58223;BME280;44020;50.890;15.796;2023-05-01T08:22:42;97787.55;;;11.68;50.02
58223;BME280;44020;50.890;15.796;2023-05-01T08:25:32;97783.95;;;11.79;49.05
58223;BME280;44020;50.890;15.796;2023-05-01T08:28:13;97781.51;;;11.88;48.39
58223;BME280;44020;50.890;15.796;2023-05-01T08:30:41;97780.38;;;11.96;48.37
58223;BME280;44020;50.890;15.796;2023-05-01T08:33:19;97782.58;;;12.02;47.43
58223;BME280;44020;50.890;15.796;2023-05-01T08:36:04;97786.70;;;12.12;46.60
58223;BME280;44020;50.890;15.796;2023-05-01T08:38:32;97780.65;;;12.23;46.94
58223;BME280;44020;50.890;15.796;2023-05-01T08:41:03;97774.11;;;12.32;46.97
58223;BME280;44020;50.890;15.796;2023-05-01T08:43:34;97771.68;;;12.40;47.52
58223;BME280;44020;50.890;15.796;2023-05-01T08:46:43;97771.36;;;12.52;47.50
58223;BME280;44020;50.890;15.796;2023-05-01T08:49:32;97767.09;;;12.61;46.17
58223;BME280;44020;50.890;15.796;2023-05-01T08:52:19;97760.94;;;12.74;46.46
58223;BME280;44020;50.890;15.796;2023-05-01T08:54:55;97760.26;;;12.82;46.34
58223;BME280;44020;50.890;15.796;2023-05-01T08:57:29;97754.28;;;12.92;45.34
58223;BME280;44020;50.890;15.796;2023-05-01T09:00:05;97751.27;;;13.03;45.86
58223;BME280;44020;50.890;15.796;2023-05-01T09:02:34;97750.75;;;13.17;45.40
58223;BME280;44020;50.890;15.796;2023-05-01T09:05:07;97745.92;;;13.23;45.62
58223;BME280;44020;50.890;15.796;2023-05-01T09:07:46;97738.46;;;13.37;45.73
58223;BME280;44020;50.890;15.796;2023-05-01T09:10:27;97733.62;;;13.48;45.37
58223;BME280;44020;50.890;15.796;2023-05-01T09:13:08;97734.83;;;13.59;45.15
58223;BME280;44020;50.890;15.796;2023-05-01T09:16:03;97734.09;;;13.70;44.51
58223;BME280;44020;50.890;15.796;2023-05-01T09:18:33;97730.59;;;13.82;42.90
58223;BME280;44020;50.890;15.796;2023-05-01T09:21:06;97723.11;;;13.93;42.59
58223;BME280;44020;50.890;15.796;2023-05-01T09:23:37;97720.11;;;14.03;41.69
58223;BME280;44020;50.890;15.796;2023-05-01T09:26:14;97720.29;;;14.12;40.89
58223;BME280;44020;50.890;15.796;2023-05-01T09:28:46;97719.48;;;14.19;38.13
58223;BME280;44020;50.890;15.796;2023-05-01T09:31:30;97713.80;;;14.29;37.96
58223;BME280;44020;50.890;15.796;2023-05-01T09:34:03;97714.23;;;14.39;38.78
58223;BME280;44020;50.890;15.796;2023-05-01T09:36:33;97712.84;;;14.47;37.52
58223;BME280;44020;50.890;15.796;2023-05-01T09:39:04;97707.31;;;14.57;38.71
58223;BME280;44020;50.890;15.796;2023-05-01T09:41:31;97701.71;;;14.68;38.82
58223;BME280;44020;50.890;15.796;2023-05-01T09:44:31;97700.45;;;14.83;38.88
58223;BME280;44020;50.890;15.796;2023-05-01T09:47:10;97696.86;;;14.95;37.28
58223;BME280;44020;50.890;15.796;2023-05-01T09:52:48;97696.35;;;15.19;37.64
58223;BME280;44020;50.890;15.796;2023-05-01T09:56:09;97688.70;;;15.31;38.00
58223;BME280;44020;50.890;15.796;2023-05-01T09:58:51;97688.39;;;15.46;35.94
58223;BME280;44020;50.890;15.796;2023-05-01T10:07:16;97678.36;;;15.71;35.44
58223;BME280;44020;50.890;15.796;2023-05-01T10:10:19;97678.80;;;15.79;35.34
58223;BME280;44020;50.890;15.796;2023-05-01T10:16:32;97672.73;;;15.96;33.00
58223;BME280;44020;50.890;15.796;2023-05-01T10:19:30;97665.17;;;16.06;34.74
58223;BME280;44020;50.890;15.796;2023-05-01T10:22:08;97665.08;;;16.16;33.07
58223;BME280;44020;50.890;15.796;2023-05-01T10:24:45;97663.16;;;16.25;31.18
58223;BME280;44020;50.890;15.796;2023-05-01T10:27:19;97661.41;;;16.31;32.63
58223;BME280;44020;50.890;15.796;2023-05-01T10:30:13;97660.40;;;16.36;32.11
58223;BME280;44020;50.890;15.796;2023-05-01T10:32:42;97663.47;;;16.41;32.18
58223;BME280;44020;50.890;15.796;2023-05-01T10:35:17;97662.55;;;16.49;31.85
58223;BME280;44020;50.890;15.796;2023-05-01T10:38:12;97657.88;;;16.61;33.18
58223;BME280;44020;50.890;15.796;2023-05-01T10:46:55;97647.23;;;16.89;31.66
58223;BME280;44020;50.890;15.796;2023-05-01T10:49:23;97647.80;;;16.97;32.33
58223;BME280;44020;50.890;15.796;2023-05-01T10:52:04;97650.30;;;17.06;30.56
58223;BME280;44020;50.890;15.796;2023-05-01T10:54:52;97637.86;;;17.12;29.65
58223;BME280;44020;50.890;15.796;2023-05-01T10:57:41;97631.21;;;17.17;31.52
58223;BME280;44020;50.890;15.796;2023-05-01T11:08:38;97607.75;;;17.51;30.87
58223;BME280;44020;50.890;15.796;2023-05-01T11:15:02;97598.73;;;17.78;30.23
58223;BME280;44020;50.890;15.796;2023-05-01T11:17:13;97600.89;;;17.91;29.64
58223;BME280;44020;50.890;15.796;2023-05-01T11:19:48;97599.48;;;17.99;28.14
58223;BME280;44020;50.890;15.796;2023-05-01T11:22:19;97597.39;;;18.11;29.55
58223;BME280;44020;50.890;15.796;2023-05-01T11:25:17;97597.48;;;18.24;29.42
58223;BME280;44020;50.890;15.796;2023-05-01T11:28:08;97590.41;;;18.37;29.18
58223;BME280;44020;50.890;15.796;2023-05-01T11:30:37;97586.26;;;18.49;27.97
58223;BME280;44020;50.890;15.796;2023-05-01T11:33:21;97582.52;;;18.56;28.42
58223;BME280;44020;50.890;15.796;2023-05-01T11:36:00;97574.79;;;18.62;29.82
58223;BME280;44020;50.890;15.796;2023-05-01T11:38:31;97572.98;;;18.73;30.28
58223;BME280;44020;50.890;15.796;2023-05-01T11:41:01;97574.93;;;18.83;29.53
58223;BME280;44020;50.890;15.796;2023-05-01T11:43:30;97569.99;;;18.89;30.08
58223;BME280;44020;50.890;15.796;2023-05-01T11:45:58;97570.70;;;18.98;29.56
58223;BME280;44020;50.890;15.796;2023-05-01T11:48:33;97564.16;;;19.05;30.10
58223;BME280;44020;50.890;15.796;2023-05-01T11:51:13;97563.15;;;19.15;29.84
58223;BME280;44020;50.890;15.796;2023-05-01T11:54:09;97562.11;;;19.22;28.79
58223;BME280;44020;50.890;15.796;2023-05-01T11:56:39;97559.19;;;19.34;29.73
58223;BME280;44020;50.890;15.796;2023-05-01T11:59:28;97556.23;;;19.42;29.52
58223;BME280;44020;50.890;15.796;2023-05-01T12:04:48;97548.25;;;19.45;27.85
58223;BME280;44020;50.890;15.796;2023-05-01T12:07:29;97543.80;;;19.50;28.77
58223;BME280;44020;50.890;15.796;2023-05-01T12:10:12;97544.38;;;19.54;28.98
58223;BME280;44020;50.890;15.796;2023-05-01T12:12:46;97544.44;;;19.57;28.60
58223;BME280;44020;50.890;15.796;2023-05-01T12:15:15;97537.83;;;19.62;29.98
58223;BME280;44020;50.890;15.796;2023-05-01T12:17:43;97535.25;;;19.65;29.46
58223;BME280;44020;50.890;15.796;2023-05-01T12:20:15;97534.47;;;19.69;29.12
58223;BME280;44020;50.890;15.796;2023-05-01T12:22:51;97527.55;;;19.73;28.64
58223;BME280;44020;50.890;15.796;2023-05-01T12:25:29;97529.73;;;19.78;29.71
58223;BME280;44020;50.890;15.796;2023-05-01T12:28:51;97525.02;;;19.85;30.47
58223;BME280;44020;50.890;15.796;2023-05-01T12:31:25;97520.70;;;19.90;28.98
58223;BME280;44020;50.890;15.796;2023-05-01T12:34:28;97518.25;;;19.92;29.44
58223;BME280;44020;50.890;15.796;2023-05-01T12:37:21;97514.66;;;19.95;30.09
58223;BME280;44020;50.890;15.796;2023-05-01T12:39:51;97512.73;;;20.01;30.09
58223;BME280;44020;50.890;15.796;2023-05-01T12:42:28;97504.98;;;20.05;30.86
58223;BME280;44020;50.890;15.796;2023-05-01T12:45:06;97496.55;;;20.10;31.46
58223;BME280;44020;50.890;15.796;2023-05-01T12:47:39;97493.01;;;20.16;31.59
58223;BME280;44020;50.890;15.796;2023-05-01T12:50:18;97488.21;;;20.24;31.62
58223;BME280;44020;50.890;15.796;2023-05-01T12:53:12;97479.90;;;20.30;31.42
58223;BME280;44020;50.890;15.796;2023-05-01T12:56:00;97482.56;;;20.33;31.33
58223;BME280;44020;50.890;15.796;2023-05-01T12:58:41;97477.87;;;20.40;30.97
58223;BME280;44020;50.890;15.796;2023-05-01T13:04:39;97469.86;;;20.53;31.20
58223;BME280;44020;50.890;15.796;2023-05-01T13:07:16;97468.98;;;20.56;31.45
58223;BME280;44020;50.890;15.796;2023-05-01T13:13:22;97464.63;;;20.66;31.90
58223;BME280;44020;50.890;15.796;2023-05-01T13:16:01;97465.09;;;20.77;32.09
58223;BME280;44020;50.890;15.796;2023-05-01T13:18:53;97455.45;;;20.87;31.21
58223;BME280;44020;50.890;15.796;2023-05-01T13:21:22;97457.11;;;21.03;31.16
58223;BME280;44020;50.890;15.796;2023-05-01T13:24:17;97447.67;;;21.14;31.24
58223;BME280;44020;50.890;15.796;2023-05-01T13:26:59;97446.63;;;21.23;31.65
58223;BME280;44020;50.890;15.796;2023-05-01T13:29:39;97440.34;;;21.30;30.75
58223;BME280;44020;50.890;15.796;2023-05-01T13:32:23;97441.63;;;21.39;30.93
58223;BME280;44020;50.890;15.796;2023-05-01T13:35:23;97443.01;;;21.49;31.69
58223;BME280;44020;50.890;15.796;2023-05-01T13:38:16;97446.21;;;21.63;31.35
58223;BME280;44020;50.890;15.796;2023-05-01T13:41:00;97442.59;;;21.76;31.46
58223;BME280;44020;50.890;15.796;2023-05-01T13:44:29;97439.11;;;21.90;32.19
58223;BME280;44020;50.890;15.796;2023-05-01T13:47:10;97436.27;;;22.03;31.58
58223;BME280;44020;50.890;15.796;2023-05-01T13:55:26;97422.96;;;22.28;31.25
58223;BME280;44020;50.890;15.796;2023-05-01T13:58:04;97419.38;;;22.31;31.43
58223;BME280;44020;50.890;15.796;2023-05-01T14:00:38;97417.81;;;22.33;31.65
58223;BME280;44020;50.890;15.796;2023-05-01T14:03:39;97414.23;;;22.34;31.82
58223;BME280;44020;50.890;15.796;2023-05-01T14:06:30;97411.68;;;22.34;31.98
58223;BME280;44020;50.890;15.796;2023-05-01T14:09:12;97402.48;;;22.34;32.00
58223;BME280;44020;50.890;15.796;2023-05-01T14:12:06;97400.08;;;22.32;31.47
58223;BME280;44020;50.890;15.796;2023-05-01T14:15:14;97399.37;;;22.31;31.25
58223;BME280;44020;50.890;15.796;2023-05-01T14:17:50;97392.52;;;22.31;30.81
58223;BME280;44020;50.890;15.796;2023-05-01T14:23:24;97380.83;;;22.29;30.69
58223;BME280;44020;50.890;15.796;2023-05-01T14:26:43;97384.02;;;22.34;31.55
58223;BME280;44020;50.890;15.796;2023-05-01T14:36:04;97376.84;;;22.48;32.32
58223;BME280;44020;50.890;15.796;2023-05-01T14:38:40;97380.91;;;22.46;32.20
58223;BME280;44020;50.890;15.796;2023-05-01T14:41:33;97387.17;;;22.47;31.83
58223;BME280;44020;50.890;15.796;2023-05-01T14:44:17;97380.71;;;22.51;32.21
58223;BME280;44020;50.890;15.796;2023-05-01T14:49:50;97371.94;;;22.66;32.62
58223;BME280;44020;50.890;15.796;2023-05-01T14:52:35;97378.92;;;22.74;32.76
58223;BME280;44020;50.890;15.796;2023-05-01T14:55:18;97373.09;;;22.80;32.81
58223;BME280;44020;50.890;15.796;2023-05-01T14:58:04;97373.46;;;23.01;32.78
58223;BME280;44020;50.890;15.796;2023-05-01T15:00:55;97374.16;;;23.36;32.65
58223;BME280;44020;50.890;15.796;2023-05-01T15:03:34;97371.69;;;23.64;32.55
58223;BME280;44020;50.890;15.796;2023-05-01T15:06:10;97372.95;;;23.69;32.44
58223;BME280;44020;50.890;15.796;2023-05-01T15:11:38;97370.66;;;23.76;33.06
58223;BME280;44020;50.890;15.796;2023-05-01T15:14:06;97370.19;;;23.78;33.39
58223;BME280;44020;50.890;15.796;2023-05-01T15:16:42;97365.05;;;23.76;32.87
58223;BME280;44020;50.890;15.796;2023-05-01T15:19:34;97365.32;;;23.65;33.05
58223;BME280;44020;50.890;15.796;2023-05-01T15:22:15;97362.46;;;23.49;33.23
58223;BME280;44020;50.890;15.796;2023-05-01T15:24:52;97362.82;;;23.25;33.13
58223;BME280;44020;50.890;15.796;2023-05-01T15:27:30;97363.39;;;23.06;33.70
58223;BME280;44020;50.890;15.796;2023-05-01T15:30:05;97363.30;;;22.97;34.10
58223;BME280;44020;50.890;15.796;2023-05-01T15:32:49;97361.11;;;22.91;34.00
58223;BME280;44020;50.890;15.796;2023-05-01T15:35:28;97360.82;;;22.78;34.13
58223;BME280;44020;50.890;15.796;2023-05-01T15:38:08;97352.17;;;22.76;34.32
58223;BME280;44020;50.890;15.796;2023-05-01T15:40:42;97354.95;;;22.68;34.49
58223;BME280;44020;50.890;15.796;2023-05-01T15:43:20;97352.71;;;22.66;34.89
58223;BME280;44020;50.890;15.796;2023-05-01T15:46:03;97352.42;;;22.59;34.98
58223;BME280;44020;50.890;15.796;2023-05-01T15:48:41;97348.74;;;22.50;34.87
58223;BME280;44020;50.890;15.796;2023-05-01T15:51:17;97344.02;;;22.38;35.14
58223;BME280;44020;50.890;15.796;2023-05-01T15:53:45;97342.16;;;22.30;35.42
58223;BME280;44020;50.890;15.796;2023-05-01T15:56:25;97345.38;;;22.20;35.55
58223;BME280;44020;50.890;15.796;2023-05-01T15:59:09;97342.94;;;22.13;35.76
58223;BME280;44020;50.890;15.796;2023-05-01T16:01:41;97342.13;;;22.08;35.56
58223;BME280;44020;50.890;15.796;2023-05-01T16:07:28;97342.20;;;22.02;35.61
58223;BME280;44020;50.890;15.796;2023-05-01T16:10:22;97342.17;;;21.90;35.78
58223;BME280;44020;50.890;15.796;2023-05-01T16:12:52;97338.95;;;21.79;35.24
58223;BME280;44020;50.890;15.796;2023-05-01T16:15:20;97334.60;;;21.66;35.73
58223;BME280;44020;50.890;15.796;2023-05-01T16:17:58;97340.33;;;21.56;35.73
58223;BME280;44020;50.890;15.796;2023-05-01T16:20:38;97342.21;;;21.45;36.14
58223;BME280;44020;50.890;15.796;2023-05-01T16:23:31;97344.58;;;21.27;36.51
58223;BME280;44020;50.890;15.796;2023-05-01T16:28:52;97336.95;;;21.06;37.12
58223;BME280;44020;50.890;15.796;2023-05-01T16:31:36;97332.08;;;20.98;37.39
58223;BME280;44020;50.890;15.796;2023-05-01T16:34:10;97331.63;;;21.02;37.55
58223;BME280;44020;50.890;15.796;2023-05-01T16:36:41;97328.84;;;21.08;37.85
58223;BME280;44020;50.890;15.796;2023-05-01T16:39:21;97328.26;;;21.05;37.84
58223;BME280;44020;50.890;15.796;2023-05-01T16:41:51;97324.89;;;21.01;38.19
58223;BME280;44020;50.890;15.796;2023-05-01T16:44:37;97323.94;;;21.06;38.34
58223;BME280;44020;50.890;15.796;2023-05-01T16:47:05;97322.23;;;21.04;38.33
58223;BME280;44020;50.890;15.796;2023-05-01T16:50:01;97322.14;;;21.00;38.41
58223;BME280;44020;50.890;15.796;2023-05-01T16:52:32;97320.62;;;20.99;38.21
58223;BME280;44020;50.890;15.796;2023-05-01T16:55:21;97316.17;;;20.97;38.11
58223;BME280;44020;50.890;15.796;2023-05-01T16:57:52;97324.13;;;20.92;38.20
58223;BME280;44020;50.890;15.796;2023-05-01T17:00:23;97326.64;;;20.76;37.87
58223;BME280;44020;50.890;15.796;2023-05-01T17:05:57;97333.86;;;20.42;37.95
58223;BME280;44020;50.890;15.796;2023-05-01T17:08:31;97335.73;;;20.24;38.27
58223;BME280;44020;50.890;15.796;2023-05-01T17:11:07;97330.91;;;20.09;38.47
58223;BME280;44020;50.890;15.796;2023-05-01T17:14:05;97331.58;;;19.96;38.75
58223;BME280;44020;50.890;15.796;2023-05-01T17:17:08;97335.98;;;19.86;38.76
58223;BME280;44020;50.890;15.796;2023-05-01T17:19:53;97333.80;;;19.75;39.16
58223;BME280;44020;50.890;15.796;2023-05-01T17:22:24;97337.80;;;19.65;39.30
58223;BME280;44020;50.890;15.796;2023-05-01T17:25:13;97337.55;;;19.54;39.44
58223;BME280;44020;50.890;15.796;2023-05-01T17:27:56;97336.05;;;19.47;39.49
58223;BME280;44020;50.890;15.796;2023-05-01T17:30:48;97336.24;;;19.37;39.83
58223;BME280;44020;50.890;15.796;2023-05-01T17:33:22;97336.58;;;19.28;39.98
58223;BME280;44020;50.890;15.796;2023-05-01T17:35:52;97340.16;;;19.21;40.22
58223;BME280;44020;50.890;15.796;2023-05-01T17:38:37;97338.61;;;19.16;40.48
58223;BME280;44020;50.890;15.796;2023-05-01T17:41:18;97337.48;;;19.06;40.83
58223;BME280;44020;50.890;15.796;2023-05-01T17:43:55;97337.38;;;18.98;40.90
58223;BME280;44020;50.890;15.796;2023-05-01T17:46:26;97343.19;;;18.94;40.91
58223;BME280;44020;50.890;15.796;2023-05-01T17:49:00;97343.44;;;18.90;41.08
58223;BME280;44020;50.890;15.796;2023-05-01T17:51:52;97343.30;;;18.86;41.18
58223;BME280;44020;50.890;15.796;2023-05-01T17:54:27;97343.93;;;18.84;41.47
58223;BME280;44020;50.890;15.796;2023-05-01T17:57:04;97344.64;;;18.77;42.00
58223;BME280;44020;50.890;15.796;2023-05-01T17:59:34;97345.96;;;18.67;41.81
58223;BME280;44020;50.890;15.796;2023-05-01T18:02:08;97339.65;;;18.56;41.96
58223;BME280;44020;50.890;15.796;2023-05-01T18:04:55;97347.02;;;18.45;41.71
58223;BME280;44020;50.890;15.796;2023-05-01T18:07:42;97346.63;;;18.39;41.75
58223;BME280;44020;50.890;15.796;2023-05-01T18:10:21;97354.00;;;18.30;41.73
58223;BME280;44020;50.890;15.796;2023-05-01T18:13:17;97353.98;;;18.24;41.86
58223;BME280;44020;50.890;15.796;2023-05-01T18:16:11;97359.54;;;18.18;42.06
58223;BME280;44020;50.890;15.796;2023-05-01T18:19:12;97362.25;;;18.14;42.46
58223;BME280;44020;50.890;15.796;2023-05-01T18:25:20;97362.92;;;18.04;43.12
58223;BME280;44020;50.890;15.796;2023-05-01T18:27:55;97362.88;;;17.98;43.32
58223;BME280;44020;50.890;15.796;2023-05-01T18:34:01;97360.70;;;17.81;43.66